sensor_id;sensor_type;location;lat;lon;timestamp;P1;durP1;ratioP1;P2;durP2;ratioP2
21539;SDS011;10931;52.164;5.518;2023-04-24T00:00:04;0.45;;;0.30;;
21539;SDS011;10931;52.164;5.518;2023-04-24T00:02:31;0.20;;;0.20;;
21539;SDS011;10931;52.164;5.518;2023-04-24T00:04:57;0.20;;;0.20;;
21539;SDS011;10931;52.164;5.518;2023-04-24T00:07:27;0.20;;;0.20;;
21539;SDS011;10931;52.164;5.518;2023-04-24T00:09:54;0.20;;;0.20;;
21539;SDS011;10931;52.164;5.518;2023-04-24T00:12:19;0.25;;;0.20;;
21539;SDS011;10931;52.164;5.518;2023-04-24T00:14:45;0.60;;;0.28;;
21539;SDS011;10931;52.164;5.518;2023-04-24T00:17:11;0.20;;;0.20;;
21539;SDS011;10931;52.164;5.518;2023-04-24T00:19:39;0.40;;;0.30;;
21539;SDS011;10931;52.164;5.518;2023-04-24T00:22:05;0.30;;;0.22;;
21539;SDS011;10931;52.164;5.518;2023-04-24T00:24:30;0.25;;;0.25;;
21539;SDS011;10931;52.164;5.518;2023-04-24T00:26:56;0.20;;;0.20;;
21539;SDS011;10931;52.164;5.518;2023-04-24T00:29:22;0.30;;;0.30;;
21539;SDS011;10931;52.164;5.518;2023-04-24T00:31:48;1.38;;;0.20;;
21539;SDS011;10931;52.164;5.518;2023-04-24T00:34:13;0.20;;;0.20;;
21539;SDS011;10931;52.164;5.518;2023-04-24T00:36:39;0.15;;;0.15;;
21539;SDS011;10931;52.164;5.518;2023-04-24T00:39:05;0.63;;;0.20;;
21539;SDS011;10931;52.164;5.518;2023-04-24T00:41:33;0.73;;;0.15;;
21539;SDS011;10931;52.164;5.518;2023-04-24T00:44:12;0.13;;;0.13;;
21539;SDS011;10931;52.164;5.518;2023-04-24T00:46:38;0.22;;;0.20;;
21539;SDS011;10931;52.164;5.518;2023-04-24T00:49:04;0.52;;;0.20;;
21539;SDS011;10931;52.164;5.518;2023-04-24T00:51:31;0.52;;;0.30;;
21539;SDS011;10931;52.164;5.518;2023-04-24T00:53:57;0.28;;;0.20;;
21539;SDS011;10931;52.164;5.518;2023-04-24T00:56:26;0.20;;;0.20;;
21539;SDS011;10931;52.164;5.518;2023-04-24T00:58:52;1.13;;;0.30;;
21539;SDS011;10931;52.164;5.518;2023-04-24T01:01:21;0.28;;;0.20;;
21539;SDS011;10931;52.164;5.518;2023-04-24T01:03:49;0.28;;;0.20;;
21539;SDS011;10931;52.164;5.518;2023-04-24T01:11:22;0.52;;;0.30;;
21539;SDS011;10931;52.164;5.518;2023-04-24T01:13:47;0.30;;;0.30;;
21539;SDS011;10931;52.164;5.518;2023-04-24T01:16:14;0.20;;;0.20;;
21539;SDS011;10931;52.164;5.518;2023-04-24T01:18:42;0.10;;;0.10;;
21539;SDS011;10931;52.164;5.518;2023-04-24T01:21:08;0.30;;;0.10;;
21539;SDS011;10931;52.164;5.518;2023-04-24T01:23:37;0.20;;;0.20;;
21539;SDS011;10931;52.164;5.518;2023-04-24T01:26:13;0.28;;;0.10;;
21539;SDS011;10931;52.164;5.518;2023-04-24T01:28:44;0.20;;;0.20;;
21539;SDS011;10931;52.164;5.518;2023-04-24T01:31:11;0.30;;;0.20;;
21539;SDS011;10931;52.164;5.518;2023-04-24T01:33:36;0.20;;;0.20;;
21539;SDS011;10931;52.164;5.518;2023-04-24T01:36:02;0.47;;;0.30;;
21539;SDS011;10931;52.164;5.518;2023-04-24T01:38:37;0.25;;;0.10;;
21539;SDS011;10931;52.164;5.518;2023-04-24T01:41:03;0.20;;;0.20;;
21539;SDS011;10931;52.164;5.518;2023-04-24T01:43:29;1.13;;;0.65;;
21539;SDS011;10931;52.164;5.518;2023-04-24T01:45:56;0.73;;;0.30;;
21539;SDS011;10931;52.164;5.518;2023-04-24T01:48:21;0.10;;;0.10;;
21539;SDS011;10931;52.164;5.518;2023-04-24T01:50:47;0.20;;;0.20;;
21539;SDS011;10931;52.164;5.518;2023-04-24T01:53:13;0.10;;;0.10;;
21539;SDS011;10931;52.164;5.518;2023-04-24T01:55:40;0.15;;;0.15;;
21539;SDS011;10931;52.164;5.518;2023-04-24T01:58:06;0.30;;;0.20;;
21539;SDS011;10931;52.164;5.518;2023-04-24T02:00:32;0.40;;;0.10;;
21539;SDS011;10931;52.164;5.518;2023-04-24T02:02:58;0.70;;;0.20;;
21539;SDS011;10931;52.164;5.518;2023-04-24T02:05:26;0.10;;;0.10;;
21539;SDS011;10931;52.164;5.518;2023-04-24T02:07:52;0.10;;;0.10;;
21539;SDS011;10931;52.164;5.518;2023-04-24T02:10:19;0.20;;;0.20;;
21539;SDS011;10931;52.164;5.518;2023-04-24T02:12:44;0.28;;;0.20;;
21539;SDS011;10931;52.164;5.518;2023-04-24T02:15:10;0.20;;;0.20;;
21539;SDS011;10931;52.164;5.518;2023-04-24T02:17:36;0.10;;;0.10;;
21539;SDS011;10931;52.164;5.518;2023-04-24T02:20:02;0.30;;;0.20;;
21539;SDS011;10931;52.164;5.518;2023-04-24T02:22:29;0.40;;;0.25;;
21539;SDS011;10931;52.164;5.518;2023-04-24T02:24:55;0.20;;;0.20;;
21539;SDS011;10931;52.164;5.518;2023-04-24T02:27:21;0.10;;;0.10;;
21539;SDS011;10931;52.164;5.518;2023-04-24T02:29:46;0.15;;;0.10;;
21539;SDS011;10931;52.164;5.518;2023-04-24T02:32:12;0.20;;;0.20;;
21539;SDS011;10931;52.164;5.518;2023-04-24T02:34:40;0.30;;;0.10;;
21539;SDS011;10931;52.164;5.518;2023-04-24T02:37:05;0.75;;;0.20;;
21539;SDS011;10931;52.164;5.518;2023-04-24T02:39:31;0.20;;;0.20;;
21539;SDS011;10931;52.164;5.518;2023-04-24T02:41:57;0.35;;;0.20;;
21539;SDS011;10931;52.164;5.518;2023-04-24T02:44:40;0.17;;;0.17;;
21539;SDS011;10931;52.164;5.518;2023-04-24T02:47:06;0.10;;;0.10;;
21539;SDS011;10931;52.164;5.518;2023-04-24T02:49:32;0.15;;;0.15;;
21539;SDS011;10931;52.164;5.518;2023-04-24T02:52:10;0.28;;;0.20;;
21539;SDS011;10931;52.164;5.518;2023-04-24T02:54:36;0.10;;;0.10;;
21539;SDS011;10931;52.164;5.518;2023-04-24T02:57:01;0.10;;;0.10;;
21539;SDS011;10931;52.164;5.518;2023-04-24T02:59:27;0.20;;;0.20;;
21539;SDS011;10931;52.164;5.518;2023-04-24T03:04:41;0.20;;;0.20;;
21539;SDS011;10931;52.164;5.518;2023-04-24T03:07:10;0.10;;;0.10;;
21539;SDS011;10931;52.164;5.518;2023-04-24T03:09:36;0.10;;;0.10;;
21539;SDS011;10931;52.164;5.518;2023-04-24T03:12:01;0.20;;;0.20;;
21539;SDS011;10931;52.164;5.518;2023-04-24T03:14:27;0.10;;;0.10;;
21539;SDS011;10931;52.164;5.518;2023-04-24T03:16:56;0.20;;;0.20;;
21539;SDS011;10931;52.164;5.518;2023-04-24T03:19:22;0.28;;;0.20;;
21539;SDS011;10931;52.164;5.518;2023-04-24T03:21:47;0.10;;;0.10;;
21539;SDS011;10931;52.164;5.518;2023-04-24T03:24:13;0.10;;;0.10;;
21539;SDS011;10931;52.164;5.518;2023-04-24T03:26:39;0.32;;;0.20;;
21539;SDS011;10931;52.164;5.518;2023-04-24T03:29:04;0.10;;;0.10;;
21539;SDS011;10931;52.164;5.518;2023-04-24T03:31:30;0.40;;;0.20;;
21539;SDS011;10931;52.164;5.518;2023-04-24T03:33:56;0.20;;;0.20;;
21539;SDS011;10931;52.164;5.518;2023-04-24T03:36:24;0.17;;;0.17;;
21539;SDS011;10931;52.164;5.518;2023-04-24T03:38:51;0.20;;;0.20;;
21539;SDS011;10931;52.164;5.518;2023-04-24T03:41:17;0.20;;;0.13;;
21539;SDS011;10931;52.164;5.518;2023-04-24T03:43:42;0.20;;;0.20;;
21539;SDS011;10931;52.164;5.518;2023-04-24T03:46:08;0.10;;;0.10;;
21539;SDS011;10931;52.164;5.518;2023-04-24T03:48:34;0.10;;;0.10;;
21539;SDS011;10931;52.164;5.518;2023-04-24T03:51:00;0.10;;;0.10;;
21539;SDS011;10931;52.164;5.518;2023-04-24T03:53:25;0.10;;;0.10;;
21539;SDS011;10931;52.164;5.518;2023-04-24T03:55:52;0.22;;;0.22;;
21539;SDS011;10931;52.164;5.518;2023-04-24T03:58:18;0.10;;;0.10;;
21539;SDS011;10931;52.164;5.518;2023-04-24T04:00:43;0.38;;;0.20;;
21539;SDS011;10931;52.164;5.518;2023-04-24T04:03:11;0.57;;;0.28;;
21539;SDS011;10931;52.164;5.518;2023-04-24T04:05:38;0.10;;;0.10;;
21539;SDS011;10931;52.164;5.518;2023-04-24T04:08:05;0.10;;;0.10;;
21539;SDS011;10931;52.164;5.518;2023-04-24T04:10:33;0.10;;;0.10;;
21539;SDS011;10931;52.164;5.518;2023-04-24T04:12:59;0.10;;;0.10;;
21539;SDS011;10931;52.164;5.518;2023-04-24T04:15:25;0.10;;;0.10;;
21539;SDS011;10931;52.164;5.518;2023-04-24T04:17:51;0.43;;;0.20;;
21539;SDS011;10931;52.164;5.518;2023-04-24T04:20:16;0.20;;;0.20;;
21539;SDS011;10931;52.164;5.518;2023-04-24T04:22:42;0.20;;;0.20;;
21539;SDS011;10931;52.164;5.518;2023-04-24T04:25:10;1.35;;;0.22;;
21539;SDS011;10931;52.164;5.518;2023-04-24T04:27:38;0.10;;;0.10;;
21539;SDS011;10931;52.164;5.518;2023-04-24T04:30:04;0.20;;;0.20;;
21539;SDS011;10931;52.164;5.518;2023-04-24T04:32:31;0.20;;;0.20;;
21539;SDS011;10931;52.164;5.518;2023-04-24T04:34:58;0.22;;;0.20;;
21539;SDS011;10931;52.164;5.518;2023-04-24T04:37:28;0.55;;;0.10;;
21539;SDS011;10931;52.164;5.518;2023-04-24T04:39:54;0.20;;;0.20;;
21539;SDS011;10931;52.164;5.518;2023-04-24T04:42:20;0.20;;;0.10;;
21539;SDS011;10931;52.164;5.518;2023-04-24T04:44:46;0.13;;;0.13;;
21539;SDS011;10931;52.164;5.518;2023-04-24T04:47:17;0.10;;;0.10;;
21539;SDS011;10931;52.164;5.518;2023-04-24T04:49:43;0.22;;;0.20;;
21539;SDS011;10931;52.164;5.518;2023-04-24T04:52:11;0.15;;;0.15;;
21539;SDS011;10931;52.164;5.518;2023-04-24T04:54:37;0.45;;;0.20;;
21539;SDS011;10931;52.164;5.518;2023-04-24T04:57:02;0.20;;;0.20;;
21539;SDS011;10931;52.164;5.518;2023-04-24T04:59:28;0.25;;;0.22;;
21539;SDS011;10931;52.164;5.518;2023-04-24T05:01:54;0.20;;;0.20;;
21539;SDS011;10931;52.164;5.518;2023-04-24T05:04:19;0.73;;;0.20;;
21539;SDS011;10931;52.164;5.518;2023-04-24T05:06:45;0.10;;;0.10;;
21539;SDS011;10931;52.164;5.518;2023-04-24T05:09:12;0.10;;;0.10;;
21539;SDS011;10931;52.164;5.518;2023-04-24T05:11:37;0.25;;;0.10;;
21539;SDS011;10931;52.164;5.518;2023-04-24T05:14:03;0.25;;;0.20;;
21539;SDS011;10931;52.164;5.518;2023-04-24T05:16:29;0.10;;;0.10;;
21539;SDS011;10931;52.164;5.518;2023-04-24T05:18:55;0.10;;;0.10;;
21539;SDS011;10931;52.164;5.518;2023-04-24T05:21:22;0.20;;;0.20;;
21539;SDS011;10931;52.164;5.518;2023-04-24T05:23:48;0.10;;;0.10;;
21539;SDS011;10931;52.164;5.518;2023-04-24T05:26:14;0.10;;;0.10;;
21539;SDS011;10931;52.164;5.518;2023-04-24T05:28:40;0.10;;;0.10;;
21539;SDS011;10931;52.164;5.518;2023-04-24T05:31:06;0.10;;;0.10;;
21539;SDS011;10931;52.164;5.518;2023-04-24T05:33:31;0.10;;;0.10;;
21539;SDS011;10931;52.164;5.518;2023-04-24T05:35:57;0.20;;;0.20;;
21539;SDS011;10931;52.164;5.518;2023-04-24T05:38:23;0.63;;;0.20;;
21539;SDS011;10931;52.164;5.518;2023-04-24T05:40:48;0.30;;;0.20;;
21539;SDS011;10931;52.164;5.518;2023-04-24T05:43:14;0.10;;;0.10;;
21539;SDS011;10931;52.164;5.518;2023-04-24T05:45:40;0.20;;;0.20;;
21539;SDS011;10931;52.164;5.518;2023-04-24T05:48:06;0.10;;;0.10;;
21539;SDS011;10931;52.164;5.518;2023-04-24T05:50:31;0.10;;;0.10;;
21539;SDS011;10931;52.164;5.518;2023-04-24T05:52:57;0.30;;;0.20;;
21539;SDS011;10931;52.164;5.518;2023-04-24T05:55:23;0.10;;;0.10;;
21539;SDS011;10931;52.164;5.518;2023-04-24T05:57:50;0.10;;;0.10;;
21539;SDS011;10931;52.164;5.518;2023-04-24T06:00:16;0.28;;;0.20;;
21539;SDS011;10931;52.164;5.518;2023-04-24T06:02:44;0.20;;;0.20;;
21539;SDS011;10931;52.164;5.518;2023-04-24T06:05:10;0.20;;;0.20;;
21539;SDS011;10931;52.164;5.518;2023-04-24T06:07:36;0.10;;;0.10;;
21539;SDS011;10931;52.164;5.518;2023-04-24T06:10:02;0.57;;;0.30;;
21539;SDS011;10931;52.164;5.518;2023-04-24T06:12:28;0.10;;;0.10;;
21539;SDS011;10931;52.164;5.518;2023-04-24T06:14:54;0.35;;;0.20;;
21539;SDS011;10931;52.164;5.518;2023-04-24T06:17:23;0.65;;;0.35;;
21539;SDS011;10931;52.164;5.518;2023-04-24T06:19:48;0.20;;;0.20;;
21539;SDS011;10931;52.164;5.518;2023-04-24T06:22:14;0.35;;;0.10;;
21539;SDS011;10931;52.164;5.518;2023-04-24T06:24:40;0.25;;;0.25;;
21539;SDS011;10931;52.164;5.518;2023-04-24T06:27:08;0.20;;;0.20;;
21539;SDS011;10931;52.164;5.518;2023-04-24T06:29:35;0.10;;;0.10;;
21539;SDS011;10931;52.164;5.518;2023-04-24T06:32:01;0.10;;;0.10;;
21539;SDS011;10931;52.164;5.518;2023-04-24T06:34:26;0.10;;;0.10;;
21539;SDS011;10931;52.164;5.518;2023-04-24T06:36:52;0.10;;;0.10;;
21539;SDS011;10931;52.164;5.518;2023-04-24T06:39:19;1.40;;;0.10;;
21539;SDS011;10931;52.164;5.518;2023-04-24T06:41:45;0.10;;;0.10;;
21539;SDS011;10931;52.164;5.518;2023-04-24T06:44:15;0.10;;;0.10;;
21539;SDS011;10931;52.164;5.518;2023-04-24T06:46:41;0.55;;;0.15;;
21539;SDS011;10931;52.164;5.518;2023-04-24T06:49:07;0.20;;;0.20;;
21539;SDS011;10931;52.164;5.518;2023-04-24T06:51:33;0.20;;;0.20;;
21539;SDS011;10931;52.164;5.518;2023-04-24T06:53:59;0.22;;;0.22;;
21539;SDS011;10931;52.164;5.518;2023-04-24T06:56:25;0.20;;;0.20;;
21539;SDS011;10931;52.164;5.518;2023-04-24T06:58:51;0.43;;;0.30;;
21539;SDS011;10931;52.164;5.518;2023-04-24T07:01:17;0.63;;;0.30;;
21539;SDS011;10931;52.164;5.518;2023-04-24T07:03:45;0.50;;;0.40;;
21539;SDS011;10931;52.164;5.518;2023-04-24T07:06:11;0.82;;;0.40;;
21539;SDS011;10931;52.164;5.518;2023-04-24T07:08:37;0.70;;;0.40;;
21539;SDS011;10931;52.164;5.518;2023-04-24T07:11:05;0.40;;;0.28;;
21539;SDS011;10931;52.164;5.518;2023-04-24T07:13:31;0.30;;;0.30;;
21539;SDS011;10931;52.164;5.518;2023-04-24T07:15:57;0.68;;;0.28;;
21539;SDS011;10931;52.164;5.518;2023-04-24T07:18:22;1.13;;;0.50;;
21539;SDS011;10931;52.164;5.518;2023-04-24T07:20:48;0.82;;;0.40;;
21539;SDS011;10931;52.164;5.518;2023-04-24T07:23:17;0.60;;;0.30;;
21539;SDS011;10931;52.164;5.518;2023-04-24T07:25:43;0.90;;;0.50;;
21539;SDS011;10931;52.164;5.518;2023-04-24T07:28:09;1.00;;;0.57;;
21539;SDS011;10931;52.164;5.518;2023-04-24T07:30:35;0.63;;;0.50;;
21539;SDS011;10931;52.164;5.518;2023-04-24T07:33:00;3.17;;;0.50;;
21539;SDS011;10931;52.164;5.518;2023-04-24T07:35:26;1.55;;;0.45;;
21539;SDS011;10931;52.164;5.518;2023-04-24T07:37:52;0.50;;;0.40;;
21539;SDS011;10931;52.164;5.518;2023-04-24T07:40:18;0.60;;;0.25;;
21539;SDS011;10931;52.164;5.518;2023-04-24T07:42:45;0.85;;;0.43;;
21539;SDS011;10931;52.164;5.518;2023-04-24T07:45:13;0.52;;;0.50;;
21539;SDS011;10931;52.164;5.518;2023-04-24T07:47:39;0.50;;;0.43;;
21539;SDS011;10931;52.164;5.518;2023-04-24T07:50:08;0.50;;;0.40;;
21539;SDS011;10931;52.164;5.518;2023-04-24T07:52:35;2.08;;;0.60;;
21539;SDS011;10931;52.164;5.518;2023-04-24T07:55:00;0.77;;;0.40;;
21539;SDS011;10931;52.164;5.518;2023-04-24T07:57:27;1.70;;;0.50;;
21539;SDS011;10931;52.164;5.518;2023-04-24T07:59:53;1.45;;;0.60;;
21539;SDS011;10931;52.164;5.518;2023-04-24T08:02:19;0.90;;;0.50;;
21539;SDS011;10931;52.164;5.518;2023-04-24T08:04:46;1.10;;;0.60;;
21539;SDS011;10931;52.164;5.518;2023-04-24T08:07:12;0.63;;;0.50;;
21539;SDS011;10931;52.164;5.518;2023-04-24T08:09:38;1.30;;;0.65;;
21539;SDS011;10931;52.164;5.518;2023-04-24T08:12:03;0.65;;;0.50;;
21539;SDS011;10931;52.164;5.518;2023-04-24T08:14:29;1.20;;;0.60;;
21539;SDS011;10931;52.164;5.518;2023-04-24T08:16:55;2.00;;;0.50;;
21539;SDS011;10931;52.164;5.518;2023-04-24T08:19:21;1.05;;;0.50;;
21539;SDS011;10931;52.164;5.518;2023-04-24T08:21:47;0.68;;;0.52;;
21539;SDS011;10931;52.164;5.518;2023-04-24T08:24:12;1.50;;;0.70;;
21539;SDS011;10931;52.164;5.518;2023-04-24T08:26:39;0.57;;;0.50;;
21539;SDS011;10931;52.164;5.518;2023-04-24T08:29:04;1.00;;;0.52;;
21539;SDS011;10931;52.164;5.518;2023-04-24T08:31:31;0.70;;;0.60;;
21539;SDS011;10931;52.164;5.518;2023-04-24T08:33:57;0.80;;;0.60;;
21539;SDS011;10931;52.164;5.518;2023-04-24T08:36:23;0.70;;;0.60;;
21539;SDS011;10931;52.164;5.518;2023-04-24T08:38:51;0.95;;;0.50;;
21539;SDS011;10931;52.164;5.518;2023-04-24T08:41:18;1.52;;;0.65;;
21539;SDS011;10931;52.164;5.518;2023-04-24T08:43:47;1.05;;;0.60;;
21539;SDS011;10931;52.164;5.518;2023-04-24T08:46:13;1.02;;;0.60;;
21539;SDS011;10931;52.164;5.518;2023-04-24T08:48:41;1.35;;;0.60;;
21539;SDS011;10931;52.164;5.518;2023-04-24T08:54:11;1.02;;;0.63;;
21539;SDS011;10931;52.164;5.518;2023-04-24T08:56:38;1.80;;;0.73;;
21539;SDS011;10931;52.164;5.518;2023-04-24T08:59:14;0.80;;;0.50;;
21539;SDS011;10931;52.164;5.518;2023-04-24T09:01:40;3.72;;;0.77;;
21539;SDS011;10931;52.164;5.518;2023-04-24T09:04:07;2.15;;;0.65;;
21539;SDS011;10931;52.164;5.518;2023-04-24T09:06:37;1.60;;;0.68;;
21539;SDS011;10931;52.164;5.518;2023-04-24T09:09:04;1.30;;;0.82;;
21539;SDS011;10931;52.164;5.518;2023-04-24T09:11:35;1.13;;;0.70;;
21539;SDS011;10931;52.164;5.518;2023-04-24T09:14:02;0.82;;;0.50;;
21539;SDS011;10931;52.164;5.518;2023-04-24T09:16:28;2.28;;;0.85;;
21539;SDS011;10931;52.164;5.518;2023-04-24T09:18:55;4.28;;;1.13;;
21539;SDS011;10931;52.164;5.518;2023-04-24T09:21:21;1.05;;;0.60;;
21539;SDS011;10931;52.164;5.518;2023-04-24T09:23:57;1.38;;;0.73;;
21539;SDS011;10931;52.164;5.518;2023-04-24T09:26:30;2.25;;;0.80;;
21539;SDS011;10931;52.164;5.518;2023-04-24T09:29:05;2.38;;;0.73;;
21539;SDS011;10931;52.164;5.518;2023-04-24T09:31:33;2.65;;;0.70;;
21539;SDS011;10931;52.164;5.518;2023-04-24T09:34:02;2.50;;;0.80;;
21539;SDS011;10931;52.164;5.518;2023-04-24T09:36:33;1.52;;;0.65;;
21539;SDS011;10931;52.164;5.518;2023-04-24T09:39:04;1.65;;;0.55;;
21539;SDS011;10931;52.164;5.518;2023-04-24T09:44:13;2.00;;;0.93;;
21539;SDS011;10931;52.164;5.518;2023-04-24T09:46:41;2.17;;;0.70;;
21539;SDS011;10931;52.164;5.518;2023-04-24T09:49:21;3.33;;;0.80;;
21539;SDS011;10931;52.164;5.518;2023-04-24T09:51:51;1.25;;;0.70;;
21539;SDS011;10931;52.164;5.518;2023-04-24T09:54:18;2.17;;;0.80;;
21539;SDS011;10931;52.164;5.518;2023-04-24T09:56:46;1.20;;;0.55;;
21539;SDS011;10931;52.164;5.518;2023-04-24T09:59:15;1.92;;;1.00;;
21539;SDS011;10931;52.164;5.518;2023-04-24T10:01:42;3.72;;;0.93;;
21539;SDS011;10931;52.164;5.518;2023-04-24T10:06:44;1.15;;;0.50;;
21539;SDS011;10931;52.164;5.518;2023-04-24T10:09:10;2.28;;;0.55;;
21539;SDS011;10931;52.164;5.518;2023-04-24T10:11:37;1.73;;;0.70;;
21539;SDS011;10931;52.164;5.518;2023-04-24T10:14:28;1.80;;;0.60;;
21539;SDS011;10931;52.164;5.518;2023-04-24T10:16:55;2.00;;;0.77;;
21539;SDS011;10931;52.164;5.518;2023-04-24T10:19:25;1.13;;;0.68;;
21539;SDS011;10931;52.164;5.518;2023-04-24T10:21:51;3.65;;;0.93;;
21539;SDS011;10931;52.164;5.518;2023-04-24T10:24:19;2.35;;;0.90;;
21539;SDS011;10931;52.164;5.518;2023-04-24T10:26:47;2.67;;;0.95;;
21539;SDS011;10931;52.164;5.518;2023-04-24T10:29:14;1.98;;;0.70;;
21539;SDS011;10931;52.164;5.518;2023-04-24T10:31:43;1.80;;;0.60;;
21539;SDS011;10931;52.164;5.518;2023-04-24T10:34:13;2.25;;;0.80;;
21539;SDS011;10931;52.164;5.518;2023-04-24T10:36:48;2.55;;;0.77;;
21539;SDS011;10931;52.164;5.518;2023-04-24T10:39:16;2.20;;;0.75;;
21539;SDS011;10931;52.164;5.518;2023-04-24T10:41:45;2.88;;;1.00;;
21539;SDS011;10931;52.164;5.518;2023-04-24T10:44:15;2.55;;;0.90;;
21539;SDS011;10931;52.164;5.518;2023-04-24T10:46:44;1.13;;;0.63;;
21539;SDS011;10931;52.164;5.518;2023-04-24T10:49:13;1.95;;;0.68;;
21539;SDS011;10931;52.164;5.518;2023-04-24T10:51:45;1.33;;;0.80;;
21539;SDS011;10931;52.164;5.518;2023-04-24T10:54:22;3.65;;;1.05;;
21539;SDS011;10931;52.164;5.518;2023-04-24T10:56:50;1.10;;;0.57;;
21539;SDS011;10931;52.164;5.518;2023-04-24T10:59:34;1.70;;;0.80;;
21539;SDS011;10931;52.164;5.518;2023-04-24T11:02:08;3.75;;;0.73;;
21539;SDS011;10931;52.164;5.518;2023-04-24T11:04:35;1.25;;;0.57;;
21539;SDS011;10931;52.164;5.518;2023-04-24T11:07:04;1.27;;;0.55;;
21539;SDS011;10931;52.164;5.518;2023-04-24T11:09:30;1.98;;;0.70;;
21539;SDS011;10931;52.164;5.518;2023-04-24T11:12:06;1.95;;;0.80;;
21539;SDS011;10931;52.164;5.518;2023-04-24T11:17:32;1.30;;;0.68;;
21539;SDS011;10931;52.164;5.518;2023-04-24T11:20:06;2.15;;;0.60;;
21539;SDS011;10931;52.164;5.518;2023-04-24T11:22:34;1.80;;;0.80;;
21539;SDS011;10931;52.164;5.518;2023-04-24T11:25:04;1.15;;;0.70;;
21539;SDS011;10931;52.164;5.518;2023-04-24T11:27:33;1.38;;;0.52;;
21539;SDS011;10931;52.164;5.518;2023-04-24T11:30:08;1.75;;;0.63;;
21539;SDS011;10931;52.164;5.518;2023-04-24T11:32:36;0.90;;;0.70;;
21539;SDS011;10931;52.164;5.518;2023-04-24T11:37:46;1.98;;;0.70;;
21539;SDS011;10931;52.164;5.518;2023-04-24T11:40:14;2.08;;;0.55;;
21539;SDS011;10931;52.164;5.518;2023-04-24T11:42:44;0.63;;;0.40;;
21539;SDS011;10931;52.164;5.518;2023-04-24T11:45:17;0.90;;;0.60;;
21539;SDS011;10931;52.164;5.518;2023-04-24T11:47:47;1.67;;;0.70;;
21539;SDS011;10931;52.164;5.518;2023-04-24T11:50:14;0.90;;;0.60;;
21539;SDS011;10931;52.164;5.518;2023-04-24T11:52:42;1.20;;;0.75;;
21539;SDS011;10931;52.164;5.518;2023-04-24T11:57:50;1.52;;;0.60;;
21539;SDS011;10931;52.164;5.518;2023-04-24T12:00:19;1.08;;;0.60;;
21539;SDS011;10931;52.164;5.518;2023-04-24T12:02:46;1.20;;;0.57;;
21539;SDS011;10931;52.164;5.518;2023-04-24T12:05:22;1.00;;;0.60;;
21539;SDS011;10931;52.164;5.518;2023-04-24T12:07:49;0.68;;;0.40;;
21539;SDS011;10931;52.164;5.518;2023-04-24T12:10:20;1.23;;;0.65;;
21539;SDS011;10931;52.164;5.518;2023-04-24T12:12:46;2.75;;;0.93;;
21539;SDS011;10931;52.164;5.518;2023-04-24T12:15:16;1.88;;;0.60;;
21539;SDS011;10931;52.164;5.518;2023-04-24T12:17:43;1.40;;;0.63;;
21539;SDS011;10931;52.164;5.518;2023-04-24T12:20:09;1.35;;;0.50;;
21539;SDS011;10931;52.164;5.518;2023-04-24T12:22:50;2.05;;;0.50;;
21539;SDS011;10931;52.164;5.518;2023-04-24T12:25:18;2.75;;;1.00;;
21539;SDS011;10931;52.164;5.518;2023-04-24T12:27:51;2.15;;;0.75;;
21539;SDS011;10931;52.164;5.518;2023-04-24T12:30:18;1.55;;;0.63;;
21539;SDS011;10931;52.164;5.518;2023-04-24T12:32:47;1.02;;;0.45;;
21539;SDS011;10931;52.164;5.518;2023-04-24T12:35:14;1.25;;;0.60;;
21539;SDS011;10931;52.164;5.518;2023-04-24T12:37:45;1.02;;;0.60;;
21539;SDS011;10931;52.164;5.518;2023-04-24T12:40:11;2.17;;;0.60;;
21539;SDS011;10931;52.164;5.518;2023-04-24T12:42:44;0.57;;;0.50;;
21539;SDS011;10931;52.164;5.518;2023-04-24T12:45:11;1.08;;;0.63;;
21539;SDS011;10931;52.164;5.518;2023-04-24T12:47:38;1.52;;;0.60;;
21539;SDS011;10931;52.164;5.518;2023-04-24T12:50:05;2.95;;;0.70;;
21539;SDS011;10931;52.164;5.518;2023-04-24T12:52:33;1.17;;;0.50;;
21539;SDS011;10931;52.164;5.518;2023-04-24T12:54:59;2.20;;;0.60;;
21539;SDS011;10931;52.164;5.518;2023-04-24T12:57:26;1.08;;;0.60;;
21539;SDS011;10931;52.164;5.518;2023-04-24T12:59:55;1.60;;;0.80;;
21539;SDS011;10931;52.164;5.518;2023-04-24T13:02:22;1.13;;;0.45;;
21539;SDS011;10931;52.164;5.518;2023-04-24T13:04:49;1.38;;;0.70;;
21539;SDS011;10931;52.164;5.518;2023-04-24T13:07:15;1.38;;;0.60;;
21539;SDS011;10931;52.164;5.518;2023-04-24T13:09:49;2.28;;;1.08;;
21539;SDS011;10931;52.164;5.518;2023-04-24T13:12:15;1.77;;;0.70;;
21539;SDS011;10931;52.164;5.518;2023-04-24T13:14:42;2.42;;;0.77;;
21539;SDS011;10931;52.164;5.518;2023-04-24T13:17:07;2.33;;;0.70;;
21539;SDS011;10931;52.164;5.518;2023-04-24T13:19:38;1.23;;;0.55;;
21539;SDS011;10931;52.164;5.518;2023-04-24T13:22:05;1.77;;;0.70;;
21539;SDS011;10931;52.164;5.518;2023-04-24T13:24:48;1.25;;;0.57;;
21539;SDS011;10931;52.164;5.518;2023-04-24T13:27:14;2.15;;;0.75;;
21539;SDS011;10931;52.164;5.518;2023-04-24T13:29:40;2.65;;;0.77;;
21539;SDS011;10931;52.164;5.518;2023-04-24T13:32:07;2.15;;;0.90;;
21539;SDS011;10931;52.164;5.518;2023-04-24T13:34:33;1.67;;;0.70;;
21539;SDS011;10931;52.164;5.518;2023-04-24T13:37:00;3.83;;;0.80;;
21539;SDS011;10931;52.164;5.518;2023-04-24T13:39:25;2.63;;;0.90;;
21539;SDS011;10931;52.164;5.518;2023-04-24T13:41:52;2.05;;;0.75;;
21539;SDS011;10931;52.164;5.518;2023-04-24T13:44:18;1.80;;;0.82;;
21539;SDS011;10931;52.164;5.518;2023-04-24T13:46:46;1.45;;;0.63;;
21539;SDS011;10931;52.164;5.518;2023-04-24T13:49:22;2.15;;;0.65;;
21539;SDS011;10931;52.164;5.518;2023-04-24T13:51:52;0.93;;;0.60;;
21539;SDS011;10931;52.164;5.518;2023-04-24T13:54:21;2.92;;;0.77;;
21539;SDS011;10931;52.164;5.518;2023-04-24T13:56:50;3.97;;;0.60;;
21539;SDS011;10931;52.164;5.518;2023-04-24T13:59:16;1.92;;;0.68;;
21539;SDS011;10931;52.164;5.518;2023-04-24T14:01:42;2.60;;;0.93;;
21539;SDS011;10931;52.164;5.518;2023-04-24T14:04:09;2.28;;;1.05;;
21539;SDS011;10931;52.164;5.518;2023-04-24T14:06:35;3.92;;;0.77;;
21539;SDS011;10931;52.164;5.518;2023-04-24T14:09:01;1.83;;;0.88;;
21539;SDS011;10931;52.164;5.518;2023-04-24T14:14:53;1.80;;;1.05;;
21539;SDS011;10931;52.164;5.518;2023-04-24T14:17:41;2.95;;;1.10;;
21539;SDS011;10931;52.164;5.518;2023-04-24T14:20:30;3.05;;;0.90;;
21539;SDS011;10931;52.164;5.518;2023-04-24T14:26:31;2.28;;;0.77;;
21539;SDS011;10931;52.164;5.518;2023-04-24T14:29:10;1.80;;;0.68;;
21539;SDS011;10931;52.164;5.518;2023-04-24T14:31:42;2.10;;;0.80;;
21539;SDS011;10931;52.164;5.518;2023-04-24T14:34:19;1.77;;;0.90;;
21539;SDS011;10931;52.164;5.518;2023-04-24T14:36:48;4.55;;;0.85;;
21539;SDS011;10931;52.164;5.518;2023-04-24T14:39:14;1.60;;;0.80;;
21539;SDS011;10931;52.164;5.518;2023-04-24T14:41:42;2.80;;;0.95;;
21539;SDS011;10931;52.164;5.518;2023-04-24T14:44:10;2.10;;;0.90;;
21539;SDS011;10931;52.164;5.518;2023-04-24T14:46:35;1.48;;;0.68;;
21539;SDS011;10931;52.164;5.518;2023-04-24T14:49:06;3.47;;;1.02;;
21539;SDS011;10931;52.164;5.518;2023-04-24T14:51:34;5.07;;;1.45;;
21539;SDS011;10931;52.164;5.518;2023-04-24T14:54:00;3.50;;;1.02;;
21539;SDS011;10931;52.164;5.518;2023-04-24T14:56:26;2.85;;;0.70;;
21539;SDS011;10931;52.164;5.518;2023-04-24T14:58:52;3.20;;;1.17;;
21539;SDS011;10931;52.164;5.518;2023-04-24T15:01:18;3.13;;;0.93;;
21539;SDS011;10931;52.164;5.518;2023-04-24T15:03:49;3.00;;;0.70;;
21539;SDS011;10931;52.164;5.518;2023-04-24T15:06:17;3.95;;;0.95;;
21539;SDS011;10931;52.164;5.518;2023-04-24T15:08:43;3.35;;;1.00;;
21539;SDS011;10931;52.164;5.518;2023-04-24T15:11:09;1.08;;;0.65;;
21539;SDS011;10931;52.164;5.518;2023-04-24T15:13:36;1.63;;;0.75;;
21539;SDS011;10931;52.164;5.518;2023-04-24T15:16:01;3.05;;;0.80;;
21539;SDS011;10931;52.164;5.518;2023-04-24T15:18:30;3.08;;;1.17;;
21539;SDS011;10931;52.164;5.518;2023-04-24T15:20:58;2.95;;;1.20;;